Time;durP1;ratioP1;P1;durP2;ratioP2;P2;SDS_P1;SDS_P2;PMS_P1;PMS_P2;Temp;Humidity;BMP_temperature;BMP_pressure;BME280_temperature;BME280_humidity;BME280_pressure;Samples;Min_cycle;Max_cycle;Signal;HPM_P1;HPM_P2
2024/04/03 00:00:46;;;;;;;4.70;1.17;;;11.60;99.90;;;;;;5071643;28;20627;-72
2024/04/03 00:03:12;;;;;;;2.73;1.20;;;11.60;99.90;;;;;;5071783;28;20166;-72
2024/04/03 00:05:37;;;;;;;1.53;1.00;;;11.50;99.90;;;;;;5071660;28;20545;-72
2024/04/03 00:08:04;;;;;;;2.03;1.23;;;11.50;99.90;;;;;;5071605;28;20260;-72
2024/04/03 00:10:30;;;;;;;5.00;1.43;;;11.40;99.90;;;;;;5071233;28;20603;-72
2024/04/03 00:12:55;;;;;;;1.83;1.20;;;11.50;99.90;;;;;;5071708;28;20400;-72
2024/04/03 00:15:21;;;;;;;2.03;1.70;;;11.50;99.90;;;;;;5071777;28;20404;-72
2024/04/03 00:17:47;;;;;;;1.10;0.97;;;11.50;99.90;;;;;;5071417;28;20209;-72
2024/04/03 00:20:12;;;;;;;3.13;1.03;;;11.50;99.90;;;;;;5071631;28;20193;-72
2024/04/03 00:22:38;;;;;;;1.83;0.80;;;11.40;99.90;;;;;;5071612;28;20404;-72
2024/04/03 00:25:04;;;;;;;1.60;1.40;;;11.40;99.90;;;;;;5073846;28;20170;-72
2024/04/03 00:27:30;;;;;;;4.70;1.03;;;11.40;99.90;;;;;;5075485;28;20239;-72
2024/04/03 00:29:55;;;;;;;4.13;1.20;;;11.40;99.90;;;;;;5075645;28;20416;-72
2024/04/03 00:32:21;;;;;;;2.57;1.70;;;11.40;99.90;;;;;;5075765;28;20181;-72
2024/04/03 00:34:51;;;;;;;1.30;1.00;;;11.30;99.90;;;;;;5075665;28;20535;-72
2024/04/03 00:37:16;;;;;;;3.20;1.13;;;11.30;99.90;;;;;;5075616;28;20185;-72
2024/04/03 00:39:42;;;;;;;2.70;1.50;;;11.30;99.90;;;;;;5075261;28;20428;-72
2024/04/03 00:42:07;;;;;;;4.73;1.37;;;11.40;99.90;;;;;;5075697;28;20166;-72
2024/04/03 00:44:34;;;;;;;3.63;1.17;;;11.30;99.90;;;;;;5075403;28;20170;-72
2024/04/03 00:47:01;;;;;;;2.67;1.10;;;11.40;99.90;;;;;;5075336;28;20193;-72
2024/04/03 00:49:27;;;;;;;2.07;1.30;;;11.40;99.90;;;;;;5074914;28;20455;-72
2024/04/03 00:51:52;;;;;;;2.93;1.60;;;11.30;99.90;;;;;;5075197;28;20443;-72
2024/04/03 00:54:19;;;;;;;2.00;1.43;;;11.30;99.90;;;;;;5075190;28;20216;-72
2024/04/03 00:56:44;;;;;;;4.50;1.00;;;11.30;99.90;;;;;;5075145;28;20633;-72
2024/04/03 00:59:12;;;;;;;2.30;1.17;;;11.30;99.90;;;;;;5074868;28;20474;-72
2024/04/03 01:01:37;;;;;;;4.27;1.27;;;11.30;99.90;;;;;;5075042;28;20177;-72
2024/04/03 01:04:03;;;;;;;1.93;1.10;;;11.20;99.90;;;;;;5074940;28;20973;-72
2024/04/03 01:06:28;;;;;;;2.67;1.13;;;11.20;99.90;;;;;;5074959;28;20737;-72
2024/04/03 01:08:54;;;;;;;3.07;1.50;;;11.20;99.90;;;;;;5074627;28;20186;-72
2024/04/03 01:11:20;;;;;;;2.00;1.07;;;11.20;99.90;;;;;;5074962;28;20621;-72
2024/04/03 01:13:46;;;;;;;4.93;2.07;;;11.20;99.90;;;;;;5074831;28;20253;-72
2024/04/03 01:16:11;;;;;;;1.30;1.00;;;11.20;99.90;;;;;;5056838;28;20515;-72
2024/04/03 01:18:37;;;;;;;2.70;1.20;;;11.20;99.90;;;;;;5074478;28;20416;-72
2024/04/03 01:21:03;;;;;;;1.40;1.17;;;11.20;99.90;;;;;;5074784;28;20735;-72
2024/04/03 01:23:28;;;;;;;4.00;1.20;;;11.30;99.90;;;;;;5074631;28;20543;-72
2024/04/03 01:25:54;;;;;;;4.70;1.17;;;11.30;99.90;;;;;;5074589;28;20556;-72
2024/04/03 01:28:21;;;;;;;6.43;1.50;;;11.30;99.90;;;;;;5074405;28;20166;-72
2024/04/03 01:30:47;;;;;;;4.67;1.20;;;11.40;99.90;;;;;;5056520;28;20197;-72
2024/04/03 01:33:12;;;;;;;2.00;0.80;;;11.30;99.90;;;;;;5074454;28;20409;-72
2024/04/03 01:35:38;;;;;;;1.73;1.20;;;11.30;99.90;;;;;;5073458;28;20644;-73
2024/04/03 01:38:04;;;;;;;1.40;1.13;;;11.30;99.90;;;;;;5073982;28;20265;-72
2024/04/03 01:40:30;;;;;;;1.73;1.30;;;11.40;99.90;;;;;;5056354;28;20190;-72
2024/04/03 01:42:55;;;;;;;4.00;1.67;;;11.30;99.90;;;;;;5074280;28;20823;-72
2024/04/03 01:45:21;;;;;;;4.40;1.50;;;11.30;99.90;;;;;;5074233;28;20205;-72
2024/04/03 01:47:47;;;;;;;1.63;1.40;;;11.30;99.90;;;;;;5074000;28;20663;-72
2024/04/03 01:50:33;;;;;;;1.43;1.27;;;11.20;99.90;;;;;;5073434;28;20187;-72
2024/04/03 01:52:59;;;;;;;4.63;0.90;;;11.20;99.90;;;;;;5072531;28;20412;-72
2024/04/03 01:55:24;;;;;;;1.97;1.10;;;11.20;99.90;;;;;;5072689;28;20891;-73
2024/04/03 01:57:50;;;;;;;1.60;1.10;;;11.20;99.90;;;;;;5055727;28;20171;-72
2024/04/03 02:00:15;;;;;;;2.93;1.07;;;11.10;99.90;;;;;;5073850;28;20186;-72
2024/04/03 02:02:41;;;;;;;4.10;1.43;;;11.10;99.90;;;;;;5073980;28;20173;-72
2024/04/03 02:05:06;;;;;;;1.20;0.80;;;11.10;99.90;;;;;;5073519;28;20543;-72
2024/04/03 02:07:32;;;;;;;2.00;1.20;;;11.10;99.90;;;;;;5073271;28;20170;-72
2024/04/03 02:09:57;;;;;;;1.67;1.10;;;11.10;99.90;;;;;;5073822;28;20187;-72
2024/04/03 02:12:23;;;;;;;2.27;0.97;;;11.00;99.90;;;;;;5073748;28;20174;-72
2024/04/03 02:14:48;;;;;;;1.17;1.07;;;11.00;99.90;;;;;;5073519;28;20641;-72
2024/04/03 02:17:14;;;;;;;2.30;1.47;;;11.00;99.90;;;;;;5073706;28;20174;-72
2024/04/03 02:19:39;;;;;;;1.20;1.00;;;11.00;99.90;;;;;;5055599;28;20572;-72
2024/04/03 02:22:05;;;;;;;2.00;1.20;;;11.00;99.90;;;;;;5073462;28;20170;-72
2024/04/03 02:24:31;;;;;;;5.50;1.40;;;10.90;99.90;;;;;;5073182;28;20241;-72
2024/04/03 02:26:56;;;;;;;1.80;1.10;;;10.80;99.90;;;;;;5073438;28;20534;-72
2024/04/03 02:29:22;;;;;;;1.50;1.10;;;10.70;99.90;;;;;;5073152;28;20558;-72
2024/04/03 02:31:47;;;;;;;4.77;2.33;;;10.70;99.90;;;;;;5073375;28;20170;-72
2024/04/03 02:34:13;;;;;;;5.40;2.07;;;10.70;99.90;;;;;;5073213;28;20166;-72
2024/04/03 02:36:38;;;;;;;2.10;1.60;;;10.70;99.90;;;;;;5055374;28;20170;-72
2024/04/03 02:39:04;;;;;;;2.37;1.10;;;10.80;99.90;;;;;;5072978;28;20201;-72
2024/04/03 02:41:29;;;;;;;2.33;1.60;;;10.80;99.90;;;;;;5073510;28;20644;-72
2024/04/03 02:43:55;;;;;;;2.20;1.23;;;10.70;99.90;;;;;;5073059;28;20170;-72
2024/04/03 02:46:20;;;;;;;2.23;1.50;;;10.60;99.90;;;;;;5073022;28;20364;-72
2024/04/03 02:48:46;;;;;;;2.27;2.00;;;10.60;99.90;;;;;;5072378;28;20387;-72
2024/04/03 02:51:12;;;;;;;4.60;1.50;;;10.60;99.90;;;;;;5073256;28;20707;-72
2024/04/03 02:53:38;;;;;;;3.10;1.10;;;10.60;99.90;;;;;;5055413;28;20209;-72
2024/04/03 02:56:07;;;;;;;2.37;1.40;;;10.60;99.90;;;;;;5072894;28;20427;-72
2024/04/03 02:58:34;;;;;;;5.10;2.43;;;10.50;99.90;;;;;;5072607;28;20798;-72
2024/04/03 03:01:01;;;;;;;3.90;1.80;;;10.50;99.90;;;;;;5072768;28;20436;-72
2024/04/03 03:03:29;;;;;;;2.67;1.73;;;10.50;99.90;;;;;;5072669;28;20412;-72
2024/04/03 03:05:58;;;;;;;6.50;1.83;;;10.40;99.90;;;;;;5072719;28;20969;-72
2024/04/03 03:08:25;;;;;;;2.63;2.13;;;10.40;99.90;;;;;;5072650;28;20401;-72
2024/04/03 03:10:51;;;;;;;4.60;2.00;;;10.50;99.90;;;;;;5072571;28;20417;-72
2024/04/03 03:13:16;;;;;;;4.73;1.73;;;10.50;99.90;;;;;;5072505;28;20433;-73
2024/04/03 03:15:53;;;;;;;5.40;2.33;;;10.50;99.90;;;;;;5073013;28;20439;-72
2024/04/03 03:18:20;;;;;;;2.93;2.03;;;10.50;99.90;;;;;;5072367;28;20178;-72
2024/04/03 03:20:48;;;;;;;3.27;2.70;;;10.40;99.90;;;;;;5072366;28;20511;-72
2024/04/03 03:23:13;;;;;;;6.20;3.20;;;10.50;99.90;;;;;;5072315;28;20451;-72
2024/04/03 03:25:39;;;;;;;2.63;2.43;;;10.40;99.90;;;;;;5072300;28;20460;-72
2024/04/03 03:28:05;;;;;;;6.17;3.30;;;10.40;99.90;;;;;;5072107;28;20405;-72
2024/04/03 03:30:30;;;;;;;3.40;2.60;;;10.40;99.90;;;;;;5072143;28;20793;-72
2024/04/03 03:32:56;;;;;;;3.47;2.80;;;10.30;99.90;;;;;;5072189;28;20685;-72
2024/04/03 03:35:21;;;;;;;4.37;2.90;;;10.30;99.90;;;;;;5072141;28;20181;-72
2024/04/03 03:37:47;;;;;;;3.20;2.90;;;10.30;99.90;;;;;;5071930;28;20181;-72
2024/04/03 03:40:12;;;;;;;5.30;2.37;;;10.40;99.90;;;;;;5072189;28;20194;-73
2024/04/03 03:42:38;;;;;;;4.70;2.70;;;10.30;99.90;;;;;;5071986;28;20636;-72
2024/04/03 03:45:04;;;;;;;4.13;1.70;;;10.30;99.90;;;;;;5071943;28;20179;-72
2024/04/03 03:47:29;;;;;;;5.57;1.87;;;10.30;99.90;;;;;;5053868;28;20563;-72
2024/04/03 03:52:40;;;;;;;5.50;3.30;;;10.30;99.90;;;;;;5072087;28;20185;-73
2024/04/03 03:55:06;;;;;;;11.90;2.80;;;10.30;99.90;;;;;;5071941;28;20417;-73
2024/04/03 03:57:32;;;;;;;3.90;2.27;;;10.30;99.90;;;;;;5071627;28;20435;-72
2024/04/03 03:59:58;;;;;;;2.27;2.00;;;10.30;99.90;;;;;;5071167;28;20432;-72
2024/04/03 04:02:24;;;;;;;5.70;2.50;;;10.30;99.90;;;;;;5071812;28;20197;-73
2024/04/03 04:04:53;;;;;;;5.67;3.00;;;10.30;99.90;;;;;;5071856;28;20254;-72
2024/04/03 04:07:20;;;;;;;5.53;4.80;;;10.30;99.90;;;;;;5071484;28;20466;-72
2024/04/03 04:09:49;;;;;;;5.37;2.67;;;10.40;99.90;;;;;;5072293;28;20424;-72
2024/04/03 04:12:16;;;;;;;5.60;2.43;;;10.40;99.90;;;;;;5071694;28;20772;-72
2024/04/03 04:14:46;;;;;;;6.43;2.77;;;10.30;99.90;;;;;;5071724;28;20746;-72
2024/04/03 04:17:12;;;;;;;4.33;2.83;;;10.40;99.90;;;;;;5071718;28;20409;-72
2024/04/03 04:19:37;;;;;;;7.20;2.80;;;10.30;99.90;;;;;;5071074;28;20477;-72
2024/04/03 04:22:03;;;;;;;3.50;2.20;;;10.30;99.90;;;;;;5071425;28;20170;-72
2024/04/03 04:24:29;;;;;;;4.40;2.20;;;10.30;99.90;;;;;;5071537;28;20182;-72
2024/04/03 04:26:59;;;;;;;2.93;2.23;;;10.40;99.90;;;;;;5071473;28;20217;-72
2024/04/03 04:29:27;;;;;;;4.80;2.27;;;10.30;99.90;;;;;;5071062;28;20189;-72
2024/04/03 04:31:53;;;;;;;7.43;2.23;;;10.20;99.90;;;;;;5053578;28;20787;-72
2024/04/03 04:34:18;;;;;;;4.00;2.40;;;10.30;99.90;;;;;;5071821;28;20401;-72
2024/04/03 04:36:44;;;;;;;10.63;2.90;;;10.30;99.90;;;;;;5071528;28;20420;-72
2024/04/03 04:39:09;;;;;;;3.23;2.60;;;10.20;99.90;;;;;;5053220;28;20199;-72
2024/04/03 04:41:35;;;;;;;13.33;3.17;;;10.30;99.90;;;;;;5071468;28;20178;-72
2024/04/03 04:44:02;;;;;;;6.27;3.33;;;10.20;99.90;;;;;;5071427;28;20174;-72
2024/04/03 04:46:27;;;;;;;3.87;2.77;;;10.10;99.90;;;;;;5071410;28;20201;-72
2024/04/03 04:48:53;;;;;;;3.00;2.50;;;10.10;99.90;;;;;;5071118;28;20839;-73
2024/04/03 04:51:20;;;;;;;3.10;2.80;;;10.00;99.90;;;;;;5071421;28;20178;-72
2024/04/03 04:53:45;;;;;;;4.83;3.10;;;10.10;99.90;;;;;;5053232;28;20174;-72
2024/04/03 04:56:11;;;;;;;6.70;3.20;;;10.10;99.90;;;;;;5071373;28;20824;-72
2024/04/03 04:58:36;;;;;;;4.20;2.63;;;10.20;99.90;;;;;;5053219;28;20416;-72
2024/04/03 05:01:07;;;;;;;6.10;3.10;;;10.20;99.90;;;;;;5053280;28;20194;-72
2024/04/03 05:03:34;;;;;;;3.40;2.30;;;10.30;99.90;;;;;;5071644;28;20629;-72
2024/04/03 05:06:01;;;;;;;3.93;2.07;;;10.20;99.90;;;;;;5071534;28;20471;-72
2024/04/03 05:08:27;;;;;;;2.90;2.60;;;10.30;99.90;;;;;;5070928;28;20412;-72
2024/04/03 05:10:57;;;;;;;5.10;2.03;;;10.30;99.90;;;;;;5072995;28;20431;-72
2024/04/03 05:13:24;;;;;;;3.60;2.67;;;10.20;99.90;;;;;;5074902;28;20416;-72
2024/04/03 05:15:50;;;;;;;6.63;3.47;;;10.30;99.90;;;;;;5074655;28;20530;-72
2024/04/03 05:18:15;;;;;;;4.57;3.30;;;10.30;99.90;;;;;;5074505;28;20978;-72
2024/04/03 05:20:42;;;;;;;5.60;3.60;;;10.30;99.90;;;;;;5074723;28;20197;-72
2024/04/03 05:23:07;;;;;;;9.50;3.90;;;10.30;99.90;;;;;;5056660;28;20178;-72
2024/04/03 05:25:33;;;;;;;6.93;3.80;;;10.40;99.90;;;;;;5074614;28;20455;-72
2024/04/03 05:27:58;;;;;;;11.20;4.10;;;10.40;99.90;;;;;;5056415;28;20177;-73
2024/04/03 05:30:24;;;;;;;14.30;4.50;;;10.40;99.90;;;;;;5074625;28;20182;-72
2024/04/03 05:32:50;;;;;;;11.20;4.90;;;10.30;99.90;;;;;;5074445;28;20529;-72
2024/04/03 05:35:16;;;;;;;4.47;3.57;;;10.30;99.90;;;;;;5074535;28;20162;-72
2024/04/03 05:37:44;;;;;;;7.57;4.27;;;10.40;99.90;;;;;;5074064;28;20423;-72
2024/04/03 05:40:10;;;;;;;14.63;5.17;;;10.40;99.90;;;;;;5074301;28;20422;-72
2024/04/03 05:42:35;;;;;;;4.83;4.37;;;10.40;99.90;;;;;;5074328;28;20405;-72
2024/04/03 05:45:02;;;;;;;10.50;4.83;;;10.40;99.90;;;;;;5074201;28;20778;-69
2024/04/03 05:47:27;;;;;;;7.07;3.90;;;10.50;99.90;;;;;;5056141;28;20533;-69
2024/04/03 05:49:53;;;;;;;8.40;4.80;;;10.60;99.90;;;;;;5056299;28;20435;-69
2024/04/03 05:52:19;;;;;;;9.07;4.50;;;10.60;99.90;;;;;;5074000;28;20173;-69
2024/04/03 05:54:46;;;;;;;10.40;5.03;;;10.60;99.90;;;;;;5055671;28;20766;-69
2024/04/03 05:57:12;;;;;;;8.60;4.37;;;10.70;99.90;;;;;;5073895;28;20256;-68
2024/04/03 05:59:38;;;;;;;5.90;4.30;;;10.80;99.90;;;;;;5073644;28;20424;-69
2024/04/03 06:02:03;;;;;;;7.73;4.03;;;10.80;99.90;;;;;;5056168;28;20965;-69
2024/04/03 06:04:29;;;;;;;4.40;3.83;;;10.80;99.90;;;;;;5073804;28;20178;-69
2024/04/03 06:06:56;;;;;;;5.20;3.70;;;10.80;99.90;;;;;;5073823;28;20191;-69
2024/04/03 06:09:22;;;;;;;4.47;4.07;;;10.90;99.90;;;;;;5073616;28;20209;-69
2024/04/03 06:11:47;;;;;;;6.37;4.10;;;10.90;99.90;;;;;;5073859;28;20401;-69
2024/04/03 06:14:13;;;;;;;4.17;3.33;;;10.90;99.90;;;;;;5073704;28;20158;-69
2024/04/03 06:16:38;;;;;;;4.37;3.73;;;11.00;99.90;;;;;;5073775;28;20162;-69
2024/04/03 06:19:09;;;;;;;4.50;3.57;;;11.10;99.90;;;;;;5073611;28;20218;-69
2024/04/03 06:21:35;;;;;;;3.90;3.60;;;11.10;99.90;;;;;;5072989;28;20151;-69
2024/04/03 06:24:03;;;;;;;3.53;3.20;;;11.20;99.90;;;;;;5073473;28;20813;-69
2024/04/03 06:26:28;;;;;;;5.53;3.23;;;11.20;99.90;;;;;;5073445;28;20474;-69
2024/04/03 06:28:54;;;;;;;5.73;2.60;;;11.20;99.90;;;;;;5073099;28;20416;-69
2024/04/03 06:31:20;;;;;;;3.63;3.33;;;11.20;99.90;;;;;;5073697;28;20249;-69
2024/04/03 06:33:50;;;;;;;3.20;2.00;;;11.30;99.90;;;;;;5073447;28;20405;-69
2024/04/03 06:36:16;;;;;;;3.30;3.07;;;11.30;99.90;;;;;;5073264;28;20465;-69
2024/04/03 06:38:42;;;;;;;6.23;3.50;;;11.40;99.90;;;;;;5073101;28;20408;-69
2024/04/03 06:41:08;;;;;;;4.03;2.87;;;11.40;99.90;;;;;;5073266;28;20400;-68
2024/04/03 06:43:33;;;;;;;4.97;2.50;;;11.40;99.90;;;;;;5073226;28;20533;-71
2024/04/03 06:45:59;;;;;;;3.83;2.80;;;11.40;99.90;;;;;;5073165;28;20198;-69
2024/04/03 06:48:24;;;;;;;8.17;2.50;;;11.50;99.90;;;;;;5072911;28;20227;-69
2024/04/03 06:50:54;;;;;;;5.37;2.07;;;11.50;99.90;;;;;;5073047;28;20186;-70
2024/04/03 06:53:20;;;;;;;3.00;1.80;;;11.60;99.90;;;;;;5072993;28;20163;-69
2024/04/03 06:55:55;;;;;;;4.23;2.30;;;11.60;99.90;;;;;;5073050;28;20407;-69
2024/04/03 06:58:21;;;;;;;4.17;2.60;;;11.60;99.90;;;;;;5072669;28;20490;-69
2024/04/03 07:00:46;;;;;;;9.57;2.57;;;11.50;99.90;;;;;;5072786;28;20896;-70
2024/04/03 07:03:12;;;;;;;4.30;2.40;;;11.50;99.90;;;;;;5073311;28;20636;-70
2024/04/03 07:05:39;;;;;;;5.00;1.70;;;11.50;99.90;;;;;;5072789;28;20575;-69
2024/04/03 07:08:05;;;;;;;7.53;2.30;;;11.50;99.90;;;;;;5072600;28;20158;-70
2024/04/03 07:10:31;;;;;;;3.00;1.93;;;11.50;99.90;;;;;;5072694;28;20462;-69
2024/04/03 07:13:00;;;;;;;5.60;2.70;;;11.60;99.90;;;;;;5072922;28;20408;-70
2024/04/03 07:15:26;;;;;;;5.53;1.77;;;11.60;99.90;;;;;;5054592;28;20261;-70
2024/04/03 07:17:52;;;;;;;1.60;1.50;;;11.50;99.90;;;;;;5054407;28;20437;-70
2024/04/03 07:20:18;;;;;;;2.10;1.80;;;11.50;99.90;;;;;;5072434;28;20947;-70
2024/04/03 07:22:43;;;;;;;6.27;2.50;;;11.50;99.90;;;;;;5072342;28;20178;-69
2024/04/03 07:25:11;;;;;;;4.60;1.97;;;11.50;99.90;;;;;;5072397;28;20232;-69
2024/04/03 07:27:36;;;;;;;3.73;1.63;;;11.50;99.90;;;;;;5072123;28;20198;-69
2024/04/03 07:30:02;;;;;;;5.17;2.60;;;11.60;99.90;;;;;;5072327;28;20566;-70
2024/04/03 07:32:28;;;;;;;3.33;1.73;;;11.60;99.90;;;;;;5072265;28;20170;-69
2024/04/03 07:34:53;;;;;;;3.57;1.80;;;11.70;99.90;;;;;;5071464;28;20205;-69
2024/04/03 07:37:19;;;;;;;2.20;1.87;;;11.70;99.90;;;;;;5072277;28;20159;-69
2024/04/03 07:39:44;;;;;;;8.07;2.70;;;11.90;99.90;;;;;;5071821;28;20673;-69
2024/04/03 07:42:10;;;;;;;3.07;1.60;;;11.90;99.90;;;;;;5072323;28;20220;-70
2024/04/03 07:44:35;;;;;;;1.77;1.30;;;12.10;99.90;;;;;;5072165;28;20240;-69
2024/04/03 07:47:01;;;;;;;3.20;1.93;;;12.30;99.90;;;;;;5072028;28;20202;-70
2024/04/03 07:49:27;;;;;;;2.40;1.07;;;12.30;99.90;;;;;;5071492;28;20244;-69
2024/04/03 07:51:52;;;;;;;2.23;1.30;;;12.40;99.90;;;;;;5072081;28;20652;-69
2024/04/03 07:54:18;;;;;;;2.93;1.37;;;12.50;99.90;;;;;;5071985;28;20393;-69
2024/04/03 07:56:43;;;;;;;6.27;1.90;;;12.50;99.90;;;;;;5071884;28;20168;-69
2024/04/03 07:59:09;;;;;;;2.27;1.43;;;12.60;99.90;;;;;;5072231;28;20209;-69
2024/04/03 08:01:35;;;;;;;2.57;1.10;;;12.50;99.90;;;;;;5071867;28;20257;-69
2024/04/03 08:04:00;;;;;;;5.47;1.77;;;12.60;99.90;;;;;;5071717;28;20400;-70
2024/04/03 08:06:26;;;;;;;2.50;2.10;;;12.70;99.90;;;;;;5071699;28;20198;-69
2024/04/03 08:08:51;;;;;;;2.80;1.67;;;12.80;99.90;;;;;;5071653;28;20162;-69
2024/04/03 08:11:17;;;;;;;2.70;1.77;;;13.00;99.90;;;;;;5071801;28;20166;-69
2024/04/03 08:13:42;;;;;;;4.17;1.73;;;13.00;99.90;;;;;;5071671;28;20162;-70
2024/04/03 08:16:08;;;;;;;3.27;1.83;;;13.10;99.90;;;;;;5071734;28;20170;-69
2024/04/03 08:18:35;;;;;;;3.17;1.70;;;13.30;99.90;;;;;;5071495;28;20549;-69
2024/04/03 08:21:03;;;;;;;5.27;1.93;;;13.60;99.90;;;;;;5071716;28;20162;-69
2024/04/03 08:23:29;;;;;;;2.50;1.60;;;13.80;99.90;;;;;;5071638;28;20575;-69
2024/04/03 08:25:55;;;;;;;2.23;2.00;;;14.00;99.90;;;;;;5071589;28;20449;-70
2024/04/03 08:28:20;;;;;;;2.23;1.50;;;14.20;99.90;;;;;;5071537;28;20400;-69
2024/04/03 08:30:46;;;;;;;2.60;1.60;;;14.60;99.90;;;;;;5071688;28;20182;-69
2024/04/03 08:33:11;;;;;;;3.27;1.73;;;14.80;99.90;;;;;;5053597;28;20198;-70
2024/04/03 08:35:37;;;;;;;3.33;1.73;;;15.20;99.90;;;;;;5071636;28;20168;-69
2024/04/03 08:38:03;;;;;;;2.60;1.60;;;15.30;99.90;;;;;;5071521;28;20179;-70
2024/04/03 08:40:29;;;;;;;2.67;1.90;;;15.50;99.90;;;;;;5071484;28;20584;-70
2024/04/03 08:42:54;;;;;;;3.93;1.60;;;15.60;99.90;;;;;;5071467;28;20158;-69
2024/04/03 08:45:21;;;;;;;3.13;1.50;;;15.40;99.90;;;;;;5072516;28;20400;-69
2024/04/03 08:47:49;;;;;;;3.00;1.63;;;15.40;99.90;;;;;;5075206;28;20653;-69
2024/04/03 08:50:15;;;;;;;2.00;1.40;;;15.20;99.90;;;;;;5075374;28;20504;-69
2024/04/03 08:52:42;;;;;;;2.90;1.73;;;15.10;99.90;;;;;;5075306;28;20963;-69
2024/04/03 08:55:14;;;;;;;1.50;1.20;;;14.90;99.90;;;;;;5075286;28;20170;-69
2024/04/03 08:57:40;;;;;;;2.23;1.40;;;14.70;99.90;;;;;;5074992;28;20400;-69
2024/04/03 09:00:08;;;;;;;3.37;1.60;;;14.40;99.90;;;;;;5075090;28;20431;-70
2024/04/03 09:02:33;;;;;;;1.33;1.23;;;14.20;99.90;;;;;;5075046;28;20469;-69
2024/04/03 09:04:59;;;;;;;2.13;1.43;;;14.10;99.90;;;;;;5075141;28;20487;-70
2024/04/03 09:07:24;;;;;;;4.03;1.30;;;13.90;99.90;;;;;;5074718;28;20265;-69
2024/04/03 09:09:50;;;;;;;2.60;1.60;;;13.60;99.90;;;;;;5074875;28;20192;-69
2024/04/03 09:12:24;;;;;;;7.83;1.60;;;13.50;99.90;;;;;;5074984;28;20194;-69
2024/04/03 09:14:49;;;;;;;2.30;0.90;;;13.50;99.90;;;;;;5074933;28;20234;-69
2024/04/03 09:17:16;;;;;;;1.37;1.27;;;13.40;99.90;;;;;;5074802;28;20497;-70
2024/04/03 09:19:49;;;;;;;1.90;1.00;;;13.40;99.90;;;;;;5074535;28;20193;-69
2024/04/03 09:22:18;;;;;;;1.63;1.10;;;13.30;99.90;;;;;;5074844;28;20405;-69
2024/04/03 09:24:43;;;;;;;1.47;1.00;;;13.20;99.90;;;;;;5074618;28;20412;-69
2024/04/03 09:27:10;;;;;;;1.10;0.83;;;13.20;99.90;;;;;;5074344;28;20444;-69
2024/04/03 09:29:36;;;;;;;1.37;1.27;;;13.00;99.90;;;;;;5074393;28;20240;-69
2024/04/03 09:32:03;;;;;;;2.40;1.03;;;13.00;99.90;;;;;;5074705;28;20397;-69
2024/04/03 09:34:31;;;;;;;2.07;1.00;;;13.00;99.90;;;;;;5074587;28;20491;-69
2024/04/03 09:36:57;;;;;;;0.73;0.60;;;13.20;99.90;;;;;;5074588;28;20408;-69
2024/04/03 09:39:26;;;;;;;2.80;1.40;;;13.30;99.90;;;;;;5074102;28;20859;-69
2024/04/03 09:41:55;;;;;;;7.97;1.20;;;13.30;99.90;;;;;;5074461;28;20170;-69
2024/04/03 09:44:22;;;;;;;0.97;0.87;;;13.30;99.90;;;;;;5074382;28;20408;-69
2024/04/03 09:46:51;;;;;;;4.87;0.80;;;13.40;99.90;;;;;;5074273;28;20853;-69
2024/04/03 09:49:21;;;;;;;0.97;0.70;;;13.40;99.90;;;;;;5073804;28;20443;-69
2024/04/03 09:51:47;;;;;;;2.23;1.17;;;13.60;99.90;;;;;;5074131;28;20404;-70
2024/04/03 09:54:14;;;;;;;1.13;1.03;;;13.60;99.90;;;;;;5074188;28;20408;-69
2024/04/03 09:56:41;;;;;;;2.40;1.10;;;13.70;99.90;;;;;;5073228;28;20880;-69
2024/04/03 09:59:07;;;;;;;1.67;1.20;;;13.90;99.90;;;;;;5073856;28;20424;-69
2024/04/03 10:01:35;;;;;;;1.70;0.80;;;14.00;99.90;;;;;;5055962;28;20954;-70
2024/04/03 10:04:04;;;;;;;2.80;0.93;;;14.80;99.90;;;;;;5074205;28;20180;-69
2024/04/03 10:06:37;;;;;;;0.80;0.60;;;15.60;99.90;;;;;;5074084;28;20459;-69
2024/04/03 10:09:16;;;;;;;0.90;0.77;;;16.30;99.90;;;;;;5073734;28;20845;-69
2024/04/03 10:11:58;;;;;;;4.33;0.93;;;16.90;99.90;;;;;;5073899;28;20393;-68
2024/04/03 10:14:32;;;;;;;1.07;0.60;;;17.10;99.90;;;;;;5056175;28;20408;-69
2024/04/03 10:16:58;;;;;;;0.90;0.70;;;17.20;99.90;;;;;;5073849;28;20416;-70
2024/04/03 10:19:30;;;;;;;1.80;1.10;;;17.10;99.90;;;;;;5073545;28;20482;-70
2024/04/03 10:22:01;;;;;;;1.43;0.90;;;17.40;99.90;;;;;;5074057;28;20835;-72
2024/04/03 10:24:32;;;;;;;1.37;1.03;;;17.60;99.90;;;;;;5073879;28;20392;-69
2024/04/03 10:26:57;;;;;;;1.03;0.60;;;18.00;99.90;;;;;;5073585;28;20448;-69
2024/04/03 10:29:23;;;;;;;1.00;0.80;;;18.10;99.90;;;;;;5073185;28;20788;-70
2024/04/03 10:31:48;;;;;;;2.13;0.80;;;18.30;99.90;;;;;;5073566;28;20649;-68
2024/04/03 10:34:20;;;;;;;1.10;0.70;;;17.80;99.90;;;;;;5073435;28;20173;-69
2024/04/03 10:36:47;;;;;;;1.27;0.90;;;17.20;99.90;;;;;;5073282;28;20182;-70
2024/04/03 10:39:13;;;;;;;1.20;0.93;;;17.20;99.90;;;;;;5073183;28;20901;-70
2024/04/03 10:41:39;;;;;;;1.20;0.70;;;17.20;99.90;;;;;;5073243;28;20440;-70
2024/04/03 10:44:05;;;;;;;1.00;0.80;;;16.80;99.90;;;;;;5072075;28;20204;-69
2024/04/03 10:46:31;;;;;;;1.30;1.20;;;16.30;99.90;;;;;;5073391;28;20451;-69
2024/04/03 10:48:56;;;;;;;1.83;0.70;;;16.10;99.90;;;;;;5072875;28;21083;-68
2024/04/03 10:51:22;;;;;;;0.93;0.67;;;15.70;99.90;;;;;;5073128;28;20189;-69
2024/04/03 10:53:48;;;;;;;0.90;0.70;;;15.40;99.90;;;;;;5072983;28;20162;-69
2024/04/03 10:56:16;;;;;;;2.17;0.70;;;15.10;99.90;;;;;;5072915;28;20412;-69
2024/04/03 10:58:44;;;;;;;2.43;1.60;;;14.90;99.90;;;;;;5072822;28;20518;-69
2024/04/03 11:01:14;;;;;;;1.63;1.03;;;14.50;99.90;;;;;;5072790;28;20428;-69
2024/04/03 11:03:41;;;;;;;1.30;1.17;;;14.50;99.90;;;;;;5072861;28;20424;-70
2024/04/03 11:06:08;;;;;;;0.90;0.70;;;14.30;99.90;;;;;;5072665;28;20466;-69
2024/04/03 11:08:34;;;;;;;1.30;0.83;;;14.30;99.90;;;;;;5072190;28;20409;-69
2024/04/03 11:11:12;;;;;;;1.00;0.70;;;14.30;99.90;;;;;;5072689;28;20410;-70
2024/04/03 11:13:45;;;;;;;1.30;1.03;;;14.10;99.90;;;;;;5072618;28;20633;-68
2024/04/03 11:16:12;;;;;;;1.37;1.27;;;14.10;99.90;;;;;;5072778;28;20915;-69
2024/04/03 11:18:37;;;;;;;1.03;0.67;;;14.20;99.90;;;;;;5072363;28;20416;-68
2024/04/03 11:21:05;;;;;;;0.90;0.60;;;14.20;99.90;;;;;;5072682;28;20814;-69
2024/04/03 11:23:32;;;;;;;0.90;0.60;;;14.30;99.90;;;;;;5072919;28;20641;-69
2024/04/03 11:25:57;;;;;;;1.10;0.70;;;14.50;99.90;;;;;;5072317;28;20954;-68
2024/04/03 11:28:23;;;;;;;1.43;0.70;;;14.60;99.90;;;;;;5072264;28;20401;-68
2024/04/03 11:30:48;;;;;;;0.80;0.70;;;14.70;99.90;;;;;;5072295;28;20246;-69
2024/04/03 11:33:14;;;;;;;1.17;0.90;;;14.80;99.90;;;;;;5072295;28;20255;-68
2024/04/03 11:35:39;;;;;;;0.80;0.60;;;14.80;99.90;;;;;;5072289;28;20177;-70
2024/04/03 11:38:06;;;;;;;1.47;0.60;;;14.70;99.90;;;;;;5087856;28;20177;-71
2024/04/03 11:40:32;;;;;;;0.80;0.60;;;14.70;99.90;;;;;;5092408;28;20182;-69
2024/04/03 11:42:58;;;;;;;1.00;0.80;;;14.60;99.90;;;;;;5092736;28;20412;-69
2024/04/03 11:45:24;;;;;;;1.23;0.97;;;14.70;99.90;;;;;;5092319;28;20439;-69
2024/04/03 11:47:52;;;;;;;1.00;0.70;;;14.40;99.90;;;;;;5092065;28;20195;-69
2024/04/03 11:50:18;;;;;;;1.30;0.80;;;14.40;99.90;;;;;;5092138;28;20189;-69
2024/04/03 11:52:43;;;;;;;1.30;0.83;;;14.40;99.90;;;;;;5073099;28;20759;-69
2024/04/03 11:55:09;;;;;;;1.20;0.60;;;14.40;99.90;;;;;;5072707;28;20174;-69
2024/04/03 11:57:35;;;;;;;0.80;0.63;;;14.40;99.90;;;;;;5072125;28;20173;-71
2024/04/03 12:00:01;;;;;;;0.93;0.67;;;14.50;99.90;;;;;;5072672;28;20719;-70
2024/04/03 12:02:27;;;;;;;1.13;0.70;;;14.50;99.90;;;;;;5053507;28;20439;-69
2024/04/03 12:04:52;;;;;;;1.33;0.83;;;14.60;99.90;;;;;;5071676;28;20412;-69
2024/04/03 12:07:19;;;;;;;2.03;0.80;;;14.60;99.90;;;;;;5071742;28;20205;-68
2024/04/03 12:09:45;;;;;;;3.57;0.70;;;14.50;99.90;;;;;;5071690;28;20187;-68
2024/04/03 12:12:11;;;;;;;2.07;0.90;;;14.60;99.90;;;;;;5071918;28;20805;-69
2024/04/03 12:14:36;;;;;;;0.80;0.70;;;14.50;99.90;;;;;;5071569;28;20412;-68
2024/04/03 12:17:05;;;;;;;0.80;0.60;;;14.40;99.90;;;;;;5071977;28;20178;-69
2024/04/03 12:22:16;;;;;;;0.90;0.60;;;14.40;99.90;;;;;;5072107;28;20790;-69
2024/04/03 12:24:42;;;;;;;1.30;0.80;;;14.50;99.90;;;;;;5071779;28;20408;-70
2024/04/03 12:27:07;;;;;;;0.90;0.80;;;14.50;99.90;;;;;;5071405;28;20210;-70
2024/04/03 12:29:33;;;;;;;0.70;0.50;;;14.50;99.90;;;;;;5071002;28;20519;-69
2024/04/03 12:31:59;;;;;;;0.80;0.70;;;14.60;99.90;;;;;;5072018;28;20181;-69
2024/04/03 12:34:25;;;;;;;1.10;0.93;;;14.60;99.90;;;;;;5071842;28;20162;-69
2024/04/03 12:36:50;;;;;;;1.10;0.70;;;14.70;99.90;;;;;;5071573;28;20965;-69
2024/04/03 12:39:16;;;;;;;0.70;0.50;;;14.60;99.90;;;;;;5071346;28;20196;-70
2024/04/03 12:41:42;;;;;;;0.80;0.60;;;14.60;99.90;;;;;;5071378;28;20166;-70
2024/04/03 12:44:07;;;;;;;0.80;0.70;;;14.60;99.90;;;;;;5071411;28;20492;-69
2024/04/03 12:46:33;;;;;;;1.50;0.93;;;14.50;99.90;;;;;;5071990;28;20209;-69